createdAt,value
2018-02-01T00:02:13.858Z,68.30
2018-02-01T00:04:41.454Z,68.20
2018-02-01T00:07:09.018Z,68.30
2018-02-01T00:09:37.409Z,68.30
2018-02-01T00:12:05.789Z,68.30
2018-02-01T00:14:34.126Z,68.30
2018-02-01T00:17:01.718Z,68.30
2018-02-01T00:19:30.056Z,68.30
2018-02-01T00:21:57.650Z,68.30
2018-02-01T00:24:25.222Z,68.30
2018-02-01T00:26:53.028Z,69.10
2018-02-01T00:29:20.642Z,68.30
2018-02-01T00:31:48.215Z,68.30
2018-02-01T00:34:16.551Z,68.30
2018-02-01T00:36:44.122Z,68.30
2018-02-01T00:39:11.695Z,68.30
2018-02-01T00:41:39.261Z,68.30
2018-02-01T00:44:07.613Z,68.30
2018-02-01T00:46:35.210Z,68.30
2018-02-01T00:49:03.604Z,68.40
2018-02-01T00:51:31.966Z,68.30
2018-02-01T00:54:00.344Z,69.20
2018-02-01T00:56:27.920Z,68.30
2018-02-01T00:58:56.258Z,68.40
2018-02-01T01:01:23.962Z,68.30
2018-02-01T01:03:52.335Z,68.30
2018-02-01T01:06:20.668Z,68.30
2018-02-01T01:08:48.274Z,68.20
2018-02-01T01:11:16.638Z,68.30
2018-02-01T01:13:44.214Z,68.30
2018-02-01T01:16:12.590Z,68.30
2018-02-01T01:18:40.976Z,68.20
2018-02-01T01:21:09.347Z,68.40
2018-02-01T01:23:37.678Z,68.30
2018-02-01T01:26:05.251Z,68.20
2018-02-01T01:28:32.814Z,68.20
2018-02-01T01:31:00.397Z,68.30
2018-02-01T01:33:27.982Z,68.30
2018-02-01T01:35:56.325Z,68.30
2018-02-01T01:38:23.988Z,68.30
2018-02-01T01:40:51.567Z,68.30
2018-02-01T01:43:19.143Z,68.20
2018-02-01T01:45:59.390Z,68.30
2018-02-01T01:48:26.972Z,68.30
2018-02-01T01:50:55.314Z,68.30
2018-02-01T01:53:23.099Z,68.30
2018-02-01T01:55:51.428Z,68.30
2018-02-01T01:58:19.011Z,68.30
2018-02-01T02:00:46.702Z,68.30
2018-02-01T02:03:15.089Z,68.30
2018-02-01T02:05:43.432Z,68.30
2018-02-01T02:08:11.019Z,68.30
2018-02-01T02:10:39.393Z,69.10
2018-02-01T02:13:07.061Z,68.30
2018-02-01T02:15:35.406Z,68.30
2018-02-01T02:18:03.002Z,68.30
2018-02-01T02:20:30.574Z,68.30
2018-02-01T02:22:58.902Z,69.10
2018-02-01T02:25:26.504Z,68.30
2018-02-01T02:27:55.090Z,68.30
2018-02-01T02:30:23.658Z,68.30
2018-02-01T02:32:51.334Z,68.30
2018-02-01T02:35:18.995Z,68.30
2018-02-01T02:37:46.660Z,68.30
2018-02-01T02:40:14.235Z,68.30
2018-02-01T02:42:42.575Z,68.30
2018-02-01T02:45:10.150Z,68.30
2018-02-01T02:47:38.506Z,69.10
2018-02-01T02:50:06.083Z,68.30
2018-02-01T02:52:33.648Z,68.30
2018-02-01T02:55:01.315Z,68.30
2018-02-01T02:57:28.990Z,68.30
2018-02-01T02:59:57.359Z,68.30
2018-02-01T03:02:25.819Z,68.40
2018-02-01T03:04:53.700Z,68.30
2018-02-01T03:07:21.264Z,68.40
2018-02-01T03:09:48.832Z,68.20
2018-02-01T03:12:16.403Z,68.30
2018-02-01T03:14:44.810Z,68.40
2018-02-01T03:17:12.374Z,68.20
2018-02-01T03:19:39.939Z,68.30
2018-02-01T03:22:07.509Z,68.30
2018-02-01T03:24:35.126Z,68.40
2018-02-01T03:27:03.502Z,68.40
2018-02-01T03:29:31.170Z,68.30
2018-02-01T03:31:59.548Z,68.40
2018-02-01T03:34:27.895Z,68.30
2018-02-01T03:36:55.471Z,68.30
2018-02-01T03:39:23.261Z,68.30
2018-02-01T03:41:51.607Z,68.30
2018-02-01T03:44:19.171Z,68.30
2018-02-01T03:46:46.750Z,68.30
2018-02-01T03:49:14.313Z,68.30
2018-02-01T03:51:41.896Z,68.40
2018-02-01T03:54:09.536Z,68.40
2018-02-01T03:56:37.891Z,68.40
2018-02-01T03:59:05.489Z,68.30
2018-02-01T04:01:33.864Z,68.40
2018-02-01T04:04:02.204Z,68.40
2018-02-01T04:06:29.776Z,68.40
2018-02-01T04:08:57.355Z,68.30
2018-02-01T04:11:25.732Z,68.40
2018-02-01T04:13:53.533Z,68.30
2018-02-01T04:16:21.108Z,68.40
2018-02-01T04:18:49.546Z,68.40
2018-02-01T04:21:17.890Z,68.40
2018-02-01T04:23:45.456Z,68.40
2018-02-01T04:26:13.030Z,68.40
2018-02-01T04:28:40.702Z,68.30
2018-02-01T04:31:08.269Z,68.40
2018-02-01T04:33:36.614Z,69.10
2018-02-01T04:36:04.198Z,68.30
2018-02-01T04:38:31.777Z,68.30
2018-02-01T04:41:00.164Z,68.40
2018-02-01T04:43:28.502Z,68.40
2018-02-01T04:45:56.089Z,68.40
2018-02-01T04:48:24.520Z,68.30
2018-02-01T04:50:52.100Z,68.30
2018-02-01T04:53:19.685Z,68.40
2018-02-01T04:55:47.255Z,68.30
2018-02-01T04:58:15.631Z,68.40
2018-02-01T05:00:43.982Z,68.40
2018-02-01T05:03:11.569Z,68.40
2018-02-01T05:05:39.142Z,68.40
2018-02-01T05:08:07.487Z,68.40
2018-02-01T05:10:35.067Z,68.40
2018-02-01T05:13:02.640Z,68.40
2018-02-01T05:15:30.974Z,68.40
2018-02-01T05:17:58.550Z,68.40
2018-02-01T05:20:26.122Z,68.40
2018-02-01T05:22:54.992Z,68.40
2018-02-01T05:25:22.586Z,68.50
2018-02-01T05:27:50.262Z,68.20
2018-02-01T05:30:18.656Z,68.50
2018-02-01T05:32:46.988Z,69.20
2018-02-01T05:35:14.566Z,68.30
2018-02-01T05:37:42.138Z,68.40
2018-02-01T05:40:10.480Z,68.40
2018-02-01T05:42:38.049Z,68.30
2018-02-01T05:45:05.636Z,68.40
2018-02-01T05:47:33.981Z,68.40
2018-02-01T05:50:01.631Z,68.20
2018-02-01T05:52:29.245Z,68.40
2018-02-01T05:54:57.589Z,69.10
2018-02-01T05:57:25.159Z,68.30
2018-02-01T05:59:53.569Z,68.40
2018-02-01T06:02:21.930Z,68.30
2018-02-01T06:04:49.599Z,68.30
2018-02-01T06:07:17.937Z,68.40
2018-02-01T06:09:45.535Z,68.40
2018-02-01T06:12:13.098Z,68.30
2018-02-01T06:14:41.505Z,68.70
2018-02-01T06:17:09.087Z,68.30
2018-02-01T06:19:36.652Z,68.30
2018-02-01T06:22:04.272Z,68.40
2018-02-01T06:24:32.625Z,68.40
2018-02-01T06:27:00.199Z,68.30
2018-02-01T06:29:28.550Z,68.30
2018-02-01T06:31:56.144Z,68.30
2018-02-01T06:34:24.674Z,68.30
2018-02-01T06:36:52.247Z,68.30
2018-02-01T06:39:19.840Z,68.30
2018-02-01T06:41:48.198Z,68.30
2018-02-01T06:44:15.806Z,68.30
2018-02-01T06:46:44.155Z,68.30
2018-02-01T06:49:11.782Z,68.30
2018-02-01T06:51:39.373Z,68.30
2018-02-01T06:54:06.950Z,68.30
2018-02-01T06:56:35.321Z,68.40
2018-02-01T06:59:02.916Z,68.30
2018-02-01T07:01:30.544Z,68.30
2018-02-01T07:03:58.262Z,68.40
2018-02-01T07:06:25.839Z,68.30
2018-02-01T07:08:53.735Z,68.40
2018-02-01T07:11:22.085Z,68.40
2018-02-01T07:13:49.678Z,68.40
2018-02-01T07:16:17.261Z,68.40
2018-02-01T07:18:45.630Z,68.40
2018-02-01T07:21:13.973Z,68.30
2018-02-01T07:23:41.553Z,68.30
2018-02-01T07:26:09.130Z,68.30
2018-02-01T07:28:37.524Z,68.60
2018-02-01T07:31:05.102Z,68.30
2018-02-01T07:33:32.678Z,68.30
2018-02-01T07:36:00.263Z,68.30
2018-02-01T07:38:27.850Z,68.30
2018-02-01T07:40:55.512Z,68.40
2018-02-01T07:43:23.192Z,68.30
2018-02-01T07:45:56.169Z,68.40
2018-02-01T07:48:24.751Z,68.30
2018-02-01T07:50:53.554Z,68.40
2018-02-01T07:53:21.900Z,68.30
2018-02-01T07:55:49.700Z,68.30
2018-02-01T07:58:17.352Z,68.30
2018-02-01T08:00:45.684Z,68.40
2018-02-01T08:03:13.899Z,68.40
2018-02-01T08:05:41.579Z,68.30
2018-02-01T08:08:09.549Z,68.70
2018-02-01T08:10:37.528Z,68.30
2018-02-01T08:13:05.124Z,68.40
2018-02-01T08:15:32.948Z,68.20
2018-02-01T08:18:01.285Z,68.30
2018-02-01T08:20:28.866Z,68.30
2018-02-01T08:22:56.442Z,68.20
2018-02-01T08:25:25.003Z,68.30
2018-02-01T08:27:54.444Z,68.20
2018-02-01T08:30:22.201Z,68.30
2018-02-01T08:32:49.856Z,68.20
2018-02-01T08:35:18.234Z,68.30
2018-02-01T08:37:46.571Z,68.20
2018-02-01T08:40:14.149Z,68.20
2018-02-01T08:42:41.734Z,68.20
2018-02-01T08:45:10.070Z,68.30
2018-02-01T08:47:37.785Z,68.30
2018-02-01T08:50:06.119Z,68.20
2018-02-01T08:52:33.698Z,68.20
2018-02-01T08:55:01.257Z,68.20
2018-02-01T08:57:28.945Z,68.20
2018-02-01T08:59:57.280Z,68.30
2018-02-01T09:02:24.980Z,68.20
2018-02-01T09:04:53.662Z,68.20
2018-02-01T09:07:21.231Z,68.20
2018-02-01T09:09:49.609Z,68.20
2018-02-01T09:12:17.944Z,68.30
2018-02-01T09:14:45.542Z,68.30
2018-02-01T09:17:13.940Z,68.30
2018-02-01T09:19:42.299Z,68.20
2018-02-01T09:22:10.698Z,68.20
2018-02-01T09:24:39.023Z,68.20
2018-02-01T09:27:06.612Z,68.20
2018-02-01T09:29:34.186Z,68.20
2018-02-01T09:32:01.760Z,68.20
2018-02-01T09:34:30.141Z,68.20
2018-02-01T09:36:58.485Z,68.20
2018-02-01T09:39:26.143Z,68.10
2018-02-01T09:41:55.328Z,68.20
2018-02-01T09:44:23.147Z,68.20
2018-02-01T09:46:51.504Z,68.20
2018-02-01T09:49:19.086Z,68.20
2018-02-01T09:51:47.460Z,68.20
2018-02-01T09:54:15.849Z,68.20
2018-02-01T09:56:44.225Z,68.20
2018-02-01T09:59:12.610Z,68.10
2018-02-01T10:01:40.142Z,68.10
2018-02-01T10:04:07.712Z,68.10
2018-02-01T10:06:35.372Z,68.10
2018-02-01T10:09:02.950Z,68.20
2018-02-01T10:11:31.295Z,68.10
2018-02-01T10:13:58.875Z,68.10
2018-02-01T10:16:26.457Z,68.10
2018-02-01T10:18:55.009Z,68.10
2018-02-01T10:21:22.681Z,68.10
2018-02-01T10:23:51.067Z,68.10
2018-02-01T10:26:19.444Z,68.10
2018-02-01T10:28:47.148Z,68.10
2018-02-01T10:31:14.726Z,68.10
2018-02-01T10:33:42.445Z,68.10
2018-02-01T10:36:10.782Z,68.10
2018-02-01T10:38:38.376Z,68.10
2018-02-01T10:41:06.753Z,68.10
2018-02-01T10:43:34.325Z,68.10
2018-02-01T10:46:03.558Z,68.10
2018-02-01T10:48:31.179Z,68.10
2018-02-01T10:50:59.879Z,68.10
2018-02-01T10:53:27.540Z,68.80
2018-02-01T10:55:55.119Z,68.10
2018-02-01T10:58:22.756Z,68.10
2018-02-01T11:00:51.091Z,68.10
2018-02-01T11:03:18.690Z,68.10
2018-02-01T11:05:47.073Z,68.10
2018-02-01T11:08:15.415Z,67.90
2018-02-01T11:10:43.106Z,67.90
2018-02-01T11:13:11.464Z,68.10
2018-02-01T11:15:39.148Z,67.90
2018-02-01T11:18:06.840Z,68.00
2018-02-01T11:20:34.491Z,67.90
2018-02-01T11:23:02.871Z,67.90
2018-02-01T11:25:31.969Z,68.10
2018-02-01T11:27:59.829Z,68.00
2018-02-01T11:30:28.169Z,68.00
2018-02-01T11:32:55.769Z,68.00
2018-02-01T11:35:24.146Z,68.00
2018-02-01T11:37:52.484Z,68.00
2018-02-01T11:40:20.061Z,68.00
2018-02-01T11:42:47.658Z,68.00
2018-02-01T11:45:16.011Z,68.10
2018-02-01T11:47:43.576Z,68.10
2018-02-01T11:50:11.237Z,68.00
2018-02-01T11:52:38.915Z,68.00
2018-02-01T11:55:07.297Z,68.00
2018-02-01T11:57:34.847Z,68.00
2018-02-01T12:00:02.439Z,67.90
2018-02-01T12:02:30.184Z,68.90
2018-02-01T12:04:58.907Z,67.90
2018-02-01T12:07:26.479Z,67.90
2018-02-01T12:09:54.093Z,67.90
2018-02-01T12:12:21.680Z,67.90
2018-02-01T12:14:49.245Z,67.90
2018-02-01T12:17:16.840Z,67.90
2018-02-01T12:19:44.435Z,67.90
2018-02-01T12:22:12.789Z,68.00
2018-02-01T12:24:40.368Z,68.00
2018-02-01T12:27:07.952Z,67.90
2018-02-01T12:29:35.597Z,68.50
2018-02-01T12:32:03.941Z,68.00
2018-02-01T12:34:31.508Z,68.00
2018-02-01T12:37:00.110Z,67.90
2018-02-01T12:39:27.798Z,68.00
2018-02-01T12:41:56.491Z,67.90
2018-02-01T12:44:24.147Z,67.90
2018-02-01T12:46:52.538Z,68.00
2018-02-01T12:49:20.160Z,68.00
2018-02-01T12:51:47.737Z,68.00
2018-02-01T12:54:16.135Z,67.90
2018-02-01T12:56:43.724Z,67.90
2018-02-01T12:59:11.313Z,68.00
2018-02-01T13:01:38.893Z,68.00
2018-02-01T13:04:06.482Z,67.90
2018-02-01T13:06:34.069Z,67.90
2018-02-01T13:09:01.665Z,67.90
2018-02-01T13:11:29.439Z,68.00
2018-02-01T13:13:57.022Z,68.00
2018-02-01T13:16:25.368Z,68.00
2018-02-01T13:18:52.941Z,68.00
2018-02-01T13:21:20.518Z,68.00
2018-02-01T13:23:48.909Z,68.00
2018-02-01T13:26:16.740Z,68.00
2018-02-01T13:28:44.473Z,67.90
2018-02-01T13:31:12.040Z,67.90
2018-02-01T13:33:39.619Z,67.90
2018-02-01T13:36:07.208Z,68.00
2018-02-01T13:38:35.582Z,68.10
2018-02-01T13:41:03.920Z,68.10
2018-02-01T13:43:31.531Z,68.00
2018-02-01T13:45:59.872Z,68.10
2018-02-01T13:48:27.479Z,68.00
2018-02-01T13:50:55.874Z,68.00
2018-02-01T13:53:23.516Z,68.00
2018-02-01T13:55:51.886Z,68.00
2018-02-01T13:58:20.435Z,68.70
2018-02-01T14:00:48.003Z,68.00
2018-02-01T14:03:15.625Z,68.00
2018-02-01T14:05:43.945Z,68.10
2018-02-01T14:08:11.538Z,68.00
2018-02-01T14:10:39.882Z,68.10
2018-02-01T14:13:07.480Z,68.00
2018-02-01T14:15:35.825Z,68.10
2018-02-01T14:18:03.493Z,68.10
2018-02-01T14:20:31.069Z,68.00
2018-02-01T14:22:58.913Z,68.00
2018-02-01T14:25:26.609Z,68.10
2018-02-01T14:27:54.361Z,68.00
2018-02-01T14:30:22.033Z,68.00
2018-02-01T14:32:50.443Z,68.10
2018-02-01T14:35:18.020Z,68.10
2018-02-01T14:37:45.644Z,68.00
2018-02-01T14:40:14.018Z,68.10
2018-02-01T14:42:42.378Z,68.10
2018-02-01T14:45:10.069Z,68.10
2018-02-01T14:47:38.403Z,68.10
2018-02-01T14:50:05.984Z,68.10
2018-02-01T14:52:33.565Z,68.10
2018-02-01T14:55:01.904Z,67.90
2018-02-01T14:57:30.818Z,68.10
2018-02-01T14:59:58.387Z,67.90
2018-02-01T15:02:25.966Z,67.90
2018-02-01T15:04:54.347Z,68.10
2018-02-01T15:07:22.687Z,68.10
2018-02-01T15:09:50.265Z,68.10
2018-02-01T15:12:18.665Z,68.90
2018-02-01T15:14:47.013Z,68.10
2018-02-01T15:17:14.586Z,68.10
2018-02-01T15:19:42.936Z,68.20
2018-02-01T15:22:10.511Z,68.10
2018-02-01T15:24:38.843Z,68.10
2018-02-01T15:27:06.447Z,68.00
2018-02-01T15:29:34.148Z,68.10
2018-02-01T15:32:02.513Z,68.10
2018-02-01T15:34:31.357Z,68.10
2018-02-01T15:36:59.522Z,68.00
2018-02-01T15:39:27.303Z,68.10
2018-02-01T15:41:55.951Z,68.80
2018-02-01T15:44:23.601Z,68.00
2018-02-01T15:46:51.957Z,68.10
2018-02-01T15:49:19.644Z,68.10
2018-02-01T15:51:47.977Z,68.10
2018-02-01T15:54:15.576Z,68.10
2018-02-01T15:56:43.236Z,68.10
2018-02-01T15:59:10.900Z,68.10
2018-02-01T16:01:38.477Z,68.10
2018-02-01T16:04:06.814Z,68.20
2018-02-01T16:06:34.380Z,68.10
2018-02-01T16:09:01.985Z,68.10
2018-02-01T16:11:29.855Z,68.10
2018-02-01T16:13:57.493Z,68.10
2018-02-01T16:16:25.190Z,68.20
2018-02-01T16:18:52.779Z,68.20
2018-02-01T16:21:20.499Z,68.20
2018-02-01T16:23:48.090Z,68.20
2018-02-01T16:26:15.655Z,68.20
2018-02-01T16:28:43.310Z,68.20
2018-02-01T16:31:10.980Z,68.30
2018-02-01T16:33:38.561Z,68.20
2018-02-01T16:36:06.268Z,68.30
2018-02-01T16:38:34.740Z,68.20
2018-02-01T16:41:03.121Z,68.20
2018-02-01T16:43:31.536Z,68.30
2018-02-01T16:46:00.223Z,68.30
2018-02-01T16:48:27.837Z,68.30
2018-02-01T16:50:55.601Z,68.30
2018-02-01T16:53:23.967Z,68.30
2018-02-01T16:55:51.549Z,68.40
2018-02-01T16:58:19.221Z,68.30
2018-02-01T17:00:47.590Z,68.30
2018-02-01T17:03:15.281Z,68.30
2018-02-01T17:05:42.883Z,69.10
2018-02-01T17:08:10.481Z,68.40
2018-02-01T17:10:38.966Z,68.90
2018-02-01T17:13:07.378Z,68.50
2018-02-01T17:15:35.006Z,68.50
2018-02-01T17:18:02.692Z,68.50
2018-02-01T17:20:31.647Z,68.50
2018-02-01T17:22:59.663Z,68.30
2018-02-01T17:25:27.625Z,68.50
2018-02-01T17:27:55.240Z,68.50
2018-02-01T17:30:23.047Z,68.40
2018-02-01T17:32:50.882Z,68.50
2018-02-01T17:35:20.832Z,68.50
2018-02-01T17:37:48.492Z,68.40
2018-02-01T17:40:16.832Z,68.50
2018-02-01T17:42:44.432Z,69.20
2018-02-01T17:45:12.064Z,68.50
2018-02-01T17:47:39.882Z,69.20
2018-02-01T17:50:08.177Z,68.50
2018-02-01T17:52:35.783Z,68.50
2018-02-01T17:55:03.367Z,68.50
2018-02-01T17:57:31.057Z,68.60
2018-02-01T17:59:59.477Z,68.50
2018-02-01T18:02:27.056Z,68.50
2018-02-01T18:04:55.444Z,68.60
2018-02-01T18:07:23.105Z,68.60
2018-02-01T18:09:51.471Z,68.60
2018-02-01T18:12:19.834Z,68.60
2018-02-01T18:14:47.449Z,68.60
2018-02-01T18:17:15.120Z,68.60
2018-02-01T18:19:42.800Z,68.60
2018-02-01T18:22:10.506Z,68.50
2018-02-01T18:24:38.889Z,69.10
2018-02-01T18:27:07.381Z,68.60
2018-02-01T18:29:35.864Z,68.60
2018-02-01T18:32:03.513Z,68.50
2018-02-01T18:34:31.912Z,68.50
2018-02-01T18:37:00.528Z,68.50
2018-02-01T18:39:28.233Z,68.50
2018-02-01T18:41:55.836Z,68.60
2018-02-01T18:44:23.482Z,63.00
2018-02-01T18:46:51.897Z,61.30
2018-02-01T18:49:20.343Z,59.80
2018-02-01T18:51:48.709Z,59.30
2018-02-01T18:54:16.380Z,59.30
2018-02-01T18:56:44.769Z,58.80
2018-02-01T18:59:12.346Z,58.70
2018-02-01T19:01:39.943Z,58.40
2018-02-01T19:04:07.652Z,58.10
2018-02-01T19:06:35.350Z,58.00
2018-02-01T19:09:02.986Z,57.80
2018-02-01T19:11:31.294Z,57.60
2018-02-01T19:13:59.745Z,57.70
2018-02-01T19:16:27.374Z,57.60
2018-02-01T19:18:54.991Z,57.50
2018-02-01T19:21:22.568Z,57.50
2018-02-01T19:23:50.433Z,57.40
2018-02-01T19:26:18.207Z,57.40
2018-02-01T19:28:45.871Z,57.40
2018-02-01T19:31:13.445Z,57.40
2018-02-01T19:33:43.050Z,57.40
2018-02-01T19:36:11.440Z,57.30
2018-02-01T19:38:39.058Z,57.30
2018-02-01T19:41:06.685Z,57.30
2018-02-01T19:43:34.472Z,57.30
2018-02-01T19:46:02.290Z,57.20
2018-02-01T19:48:29.934Z,57.30
2018-02-01T19:50:57.577Z,57.40
2018-02-01T19:53:25.326Z,57.50
2018-02-01T19:55:53.838Z,57.50
2018-02-01T19:58:21.497Z,57.50
2018-02-01T20:00:49.183Z,57.60
2018-02-01T20:03:16.731Z,57.50
2018-02-01T20:05:44.557Z,57.50
2018-02-01T20:08:12.899Z,57.40
2018-02-01T20:10:40.598Z,57.40
2018-02-01T20:13:08.242Z,57.60
2018-02-01T20:15:36.676Z,59.40
2018-02-01T20:18:04.246Z,59.40
2018-02-01T20:20:31.885Z,60.40
2018-02-01T20:22:59.938Z,61.50
2018-02-01T20:25:27.617Z,62.30
2018-02-01T20:27:55.295Z,63.00
2018-02-01T20:30:22.923Z,63.60
2018-02-01T20:32:51.408Z,64.80
2018-02-01T20:35:19.147Z,64.70
2018-02-01T20:37:46.710Z,65.20
2018-02-01T20:40:14.427Z,65.50
2018-02-01T20:42:42.050Z,65.50
2018-02-01T20:45:10.436Z,67.00
2018-02-01T20:47:38.841Z,66.40
2018-02-01T20:50:06.537Z,66.40
2018-02-01T20:52:34.173Z,66.50
2018-02-01T20:55:01.792Z,66.70
2018-02-01T20:57:31.235Z,67.00
2018-02-01T20:59:59.380Z,67.00
2018-02-01T21:02:27.055Z,67.10
2018-02-01T21:04:54.653Z,67.10
2018-02-01T21:07:22.308Z,67.30
2018-02-01T21:09:50.053Z,67.40
2018-02-01T21:12:17.625Z,67.30
2018-02-01T21:14:45.392Z,67.40
2018-02-01T21:17:13.003Z,67.50
2018-02-01T21:19:40.675Z,67.60
2018-02-01T21:22:09.089Z,67.50
2018-02-01T21:24:36.852Z,67.50
2018-02-01T21:27:04.809Z,67.60
2018-02-01T21:29:32.444Z,67.60
2018-02-01T21:32:00.014Z,67.60
2018-02-01T21:34:27.721Z,68.40
2018-02-01T21:36:55.341Z,67.60
2018-02-01T21:39:23.724Z,67.70
2018-02-01T21:41:52.113Z,67.70
2018-02-01T21:44:20.449Z,67.80
2018-02-01T21:46:48.040Z,67.80
2018-02-01T21:49:16.436Z,67.80
2018-02-01T21:51:44.023Z,67.70
2018-02-01T21:54:11.642Z,67.80
2018-02-01T21:56:39.995Z,67.80
2018-02-01T21:59:07.633Z,67.80
2018-02-01T22:01:35.255Z,67.70
2018-02-01T22:04:03.642Z,67.80
2018-02-01T22:06:31.289Z,67.80
2018-02-01T22:08:59.851Z,67.90
2018-02-01T22:11:27.473Z,67.70
2018-02-01T22:13:55.096Z,67.90
2018-02-01T22:16:23.441Z,67.80
2018-02-01T22:18:51.004Z,67.80
2018-02-01T22:21:18.597Z,67.90
2018-02-01T22:23:46.933Z,67.90
2018-02-01T22:26:14.579Z,67.80
2018-02-01T22:28:42.189Z,67.80
2018-02-01T22:31:09.869Z,67.90
2018-02-01T22:33:38.207Z,68.60
2018-02-01T22:36:05.791Z,67.90
2018-02-01T22:38:33.363Z,67.90
2018-02-01T22:41:01.700Z,67.80
2018-02-01T22:43:29.492Z,67.80
2018-02-01T22:45:57.064Z,67.90
2018-02-01T22:48:25.397Z,67.80
2018-02-01T22:50:52.970Z,67.80
2018-02-01T22:53:20.662Z,67.80
2018-02-01T22:55:48.235Z,67.90
2018-02-01T22:58:16.612Z,67.90
2018-02-01T23:00:45.000Z,68.00
2018-02-01T23:03:13.340Z,67.90
2018-02-01T23:05:40.931Z,67.90
2018-02-01T23:08:09.286Z,67.90
2018-02-01T23:10:36.866Z,67.80
2018-02-01T23:13:05.248Z,67.90
2018-02-01T23:15:33.590Z,67.30
2018-02-01T23:18:01.183Z,67.80
2018-02-01T23:20:29.483Z,67.90
2018-02-01T23:22:57.859Z,67.80
2018-02-01T23:25:25.511Z,67.90
2018-02-01T23:27:53.849Z,67.90
2018-02-01T23:30:21.490Z,67.80
2018-02-01T23:32:49.790Z,67.90
2018-02-01T23:35:17.360Z,67.90
2018-02-01T23:37:44.951Z,67.80
2018-02-01T23:40:13.322Z,67.90
2018-02-01T23:42:40.986Z,67.90
2018-02-01T23:45:08.662Z,68.70
2018-02-01T23:47:37.034Z,67.90
2018-02-01T23:50:05.367Z,67.90
2018-02-01T23:52:32.974Z,67.90
2018-02-01T23:55:01.348Z,68.00
2018-02-01T23:57:29.617Z,67.90
2018-02-01T23:59:57.287Z,67.80
